sensor_id;sensor_type;location;lat;lon;timestamp;pressure;altitude;pressure_sealevel;temperature;humidity
22755;BME280;11544;42.020;23.094;2023-12-07T00:02:04;96833.59;;;8.31;100.00
22755;BME280;11544;42.020;23.094;2023-12-07T00:04:31;96841.50;;;8.01;100.00
22755;BME280;11544;42.020;23.094;2023-12-07T00:06:58;96847.06;;;8.17;100.00
22755;BME280;11544;42.020;23.094;2023-12-07T00:09:26;96841.06;;;8.43;100.00
22755;BME280;11544;42.020;23.094;2023-12-07T00:11:53;96842.28;;;8.32;100.00
22755;BME280;11544;42.020;23.094;2023-12-07T00:14:20;96847.47;;;8.32;100.00
22755;BME280;11544;42.020;23.094;2023-12-07T00:16:47;96843.78;;;8.39;100.00
22755;BME280;11544;42.020;23.094;2023-12-07T00:19:14;96849.44;;;8.23;100.00
22755;BME280;11544;42.020;23.094;2023-12-07T00:21:41;96853.84;;;8.21;100.00
22755;BME280;11544;42.020;23.094;2023-12-07T00:24:08;96852.28;;;8.16;100.00
22755;BME280;11544;42.020;23.094;2023-12-07T00:26:35;96847.97;;;8.43;100.00
22755;BME280;11544;42.020;23.094;2023-12-07T00:29:02;96850.56;;;8.43;100.00
22755;BME280;11544;42.020;23.094;2023-12-07T00:31:29;96850.56;;;8.43;100.00
22755;BME280;11544;42.020;23.094;2023-12-07T00:33:57;96854.53;;;8.55;100.00
22755;BME280;11544;42.020;23.094;2023-12-07T00:36:23;96855.63;;;8.47;100.00
22755;BME280;11544;42.020;23.094;2023-12-07T00:38:50;96854.09;;;8.42;100.00
22755;BME280;11544;42.020;23.094;2023-12-07T00:41:17;96848.53;;;8.53;100.00
22755;BME280;11544;42.020;23.094;2023-12-07T00:43:44;96858.47;;;8.66;100.00
22755;BME280;11544;42.020;23.094;2023-12-07T00:46:11;96865.94;;;8.22;100.00
22755;BME280;11544;42.020;23.094;2023-12-07T00:48:38;96868.69;;;8.18;100.00
22755;BME280;11544;42.020;23.094;2023-12-07T00:51:05;96868.16;;;8.06;100.00
22755;BME280;11544;42.020;23.094;2023-12-07T00:53:35;96867.66;;;8.50;100.00
22755;BME280;11544;42.020;23.094;2023-12-07T00:56:03;96873.81;;;8.19;100.00
22755;BME280;11544;42.020;23.094;2023-12-07T00:58:30;96871.44;;;7.83;100.00
22755;BME280;11544;42.020;23.094;2023-12-07T01:00:57;96874.84;;;8.14;100.00
22755;BME280;11544;42.020;23.094;2023-12-07T01:03:24;96872.72;;;8.26;100.00
22755;BME280;11544;42.020;23.094;2023-12-07T01:05:51;96871.19;;;8.19;100.00
22755;BME280;11544;42.020;23.094;2023-12-07T01:08:19;96873.00;;;7.89;100.00
22755;BME280;11544;42.020;23.094;2023-12-07T01:10:45;96868.78;;;7.87;100.00
22755;BME280;11544;42.020;23.094;2023-12-07T01:13:12;96870.56;;;7.84;100.00
22755;BME280;11544;42.020;23.094;2023-12-07T01:15:40;96871.25;;;7.60;100.00
22755;BME280;11544;42.020;23.094;2023-12-07T01:18:06;96869.25;;;7.70;100.00
22755;BME280;11544;42.020;23.094;2023-12-07T01:20:33;96871.84;;;7.70;100.00
22755;BME280;11544;42.020;23.094;2023-12-07T01:23:01;96875.09;;;7.76;100.00
22755;BME280;11544;42.020;23.094;2023-12-07T01:25:28;96866.53;;;8.02;100.00
22755;BME280;11544;42.020;23.094;2023-12-07T01:27:55;96870.78;;;8.05;100.00
22755;BME280;11544;42.020;23.094;2023-12-07T01:30:22;96867.66;;;8.22;100.00
22755;BME280;11544;42.020;23.094;2023-12-07T01:32:49;96869.09;;;8.04;100.00
22755;BME280;11544;42.020;23.094;2023-12-07T01:35:16;96859.97;;;8.47;100.00
22755;BME280;11544;42.020;23.094;2023-12-07T01:37:43;96862.41;;;7.97;100.00
22755;BME280;11544;42.020;23.094;2023-12-07T01:40:10;96859.16;;;7.89;100.00
22755;BME280;11544;42.020;23.094;2023-12-07T01:42:38;96864.78;;;8.03;100.00
22755;BME280;11544;42.020;23.094;2023-12-07T01:45:06;96855.41;;;7.99;100.00
22755;BME280;11544;42.020;23.094;2023-12-07T01:47:35;96856.41;;;7.95;100.00
22755;BME280;11544;42.020;23.094;2023-12-07T01:50:03;96858.47;;;7.83;100.00
22755;BME280;11544;42.020;23.094;2023-12-07T01:52:38;96855.41;;;7.99;100.00
22755;BME280;11544;42.020;23.094;2023-12-07T01:55:06;96854.66;;;7.95;100.00
22755;BME280;11544;42.020;23.094;2023-12-07T01:57:34;96845.09;;;7.96;100.00
22755;BME280;11544;42.020;23.094;2023-12-07T02:00:01;96857.78;;;7.77;100.00
22755;BME280;11544;42.020;23.094;2023-12-07T02:02:31;96844.81;;;7.77;100.00
22755;BME280;11544;42.020;23.094;2023-12-07T02:04:58;96850.91;;;7.76;100.00
22755;BME280;11544;42.020;23.094;2023-12-07T02:07:26;96840.25;;;7.85;100.00
22755;BME280;11544;42.020;23.094;2023-12-07T02:09:54;96837.38;;;7.94;100.00
22755;BME280;11544;42.020;23.094;2023-12-07T02:12:20;96837.28;;;7.97;100.00
22755;BME280;11544;42.020;23.094;2023-12-07T02:14:48;96838.50;;;7.85;100.00
22755;BME280;11544;42.020;23.094;2023-12-07T02:17:19;96839.19;;;7.92;100.00
22755;BME280;11544;42.020;23.094;2023-12-07T02:20:12;96831.81;;;8.06;100.00
22755;BME280;11544;42.020;23.094;2023-12-07T02:22:43;96830.13;;;8.05;100.00
22755;BME280;11544;42.020;23.094;2023-12-07T02:25:14;96825.00;;;8.29;100.00
22755;BME280;11544;42.020;23.094;2023-12-07T02:27:45;96821.00;;;7.92;100.00
22755;BME280;11544;42.020;23.094;2023-12-07T02:30:12;96814.56;;;7.77;100.00
22755;BME280;11544;42.020;23.094;2023-12-07T02:32:41;96811.00;;;8.35;100.00
22755;BME280;11544;42.020;23.094;2023-12-07T02:35:10;96813.19;;;8.20;100.00
22755;BME280;11544;42.020;23.094;2023-12-07T02:37:45;96800.91;;;7.99;100.00
22755;BME280;11544;42.020;23.094;2023-12-07T02:40:18;96797.38;;;8.01;100.00
22755;BME280;11544;42.020;23.094;2023-12-07T02:42:46;96791.97;;;8.07;100.00
22755;BME280;11544;42.020;23.094;2023-12-07T02:45:13;96793.28;;;8.21;100.00
22755;BME280;11544;42.020;23.094;2023-12-07T02:47:44;96784.63;;;8.20;100.00
22755;BME280;11544;42.020;23.094;2023-12-07T02:50:12;96783.59;;;8.78;100.00
22755;BME280;11544;42.020;23.094;2023-12-07T02:52:40;96791.88;;;8.11;100.00
22755;BME280;11544;42.020;23.094;2023-12-07T02:55:07;96801.13;;;7.91;100.00
22755;BME280;11544;42.020;23.094;2023-12-07T02:57:36;96793.06;;;7.72;100.00
22755;BME280;11544;42.020;23.094;2023-12-07T03:00:03;96799.41;;;7.63;100.00
22755;BME280;11544;42.020;23.094;2023-12-07T03:02:38;96799.78;;;7.51;100.00
22755;BME280;11544;42.020;23.094;2023-12-07T03:05:05;96811.38;;;7.68;100.00
22755;BME280;11544;42.020;23.094;2023-12-07T03:07:34;96806.84;;;7.74;100.00
22755;BME280;11544;42.020;23.094;2023-12-07T03:10:02;96812.94;;;7.73;100.00
22755;BME280;11544;42.020;23.094;2023-12-07T03:12:30;96815.97;;;7.88;100.00
22755;BME280;11544;42.020;23.094;2023-12-07T03:14:57;96815.03;;;7.89;100.00
22755;BME280;11544;42.020;23.094;2023-12-07T03:17:24;96814.72;;;7.71;100.00
22755;BME280;11544;42.020;23.094;2023-12-07T03:19:51;96820.06;;;7.67;100.00
22755;BME280;11544;42.020;23.094;2023-12-07T03:22:18;96821.28;;;7.55;100.00
22755;BME280;11544;42.020;23.094;2023-12-07T03:24:48;96823.56;;;7.66;100.00
22755;BME280;11544;42.020;23.094;2023-12-07T03:27:15;96828.09;;;7.57;100.00
22755;BME280;11544;42.020;23.094;2023-12-07T03:29:42;96829.28;;;7.47;100.00
22755;BME280;11544;42.020;23.094;2023-12-07T03:32:09;96834.69;;;7.39;100.00
22755;BME280;11544;42.020;23.094;2023-12-07T03:34:36;96830.16;;;7.46;100.00
22755;BME280;11544;42.020;23.094;2023-12-07T03:37:03;96830.63;;;7.31;100.00
22755;BME280;11544;42.020;23.094;2023-12-07T03:39:31;96838.06;;;7.41;100.00
22755;BME280;11544;42.020;23.094;2023-12-07T03:42:00;96829.38;;;7.44;100.00
22755;BME280;11544;42.020;23.094;2023-12-07T03:44:26;96833.00;;;7.68;100.00
22755;BME280;11544;42.020;23.094;2023-12-07T03:46:54;96829.44;;;7.71;100.00
22755;BME280;11544;42.020;23.094;2023-12-07T03:49:21;96829.88;;;7.85;100.00
22755;BME280;11544;42.020;23.094;2023-12-07T03:51:48;96824.16;;;8.02;100.00
22755;BME280;11544;42.020;23.094;2023-12-07T03:54:16;96821.81;;;7.94;100.00
22755;BME280;11544;42.020;23.094;2023-12-07T03:56:43;96821.09;;;8.17;100.00
22755;BME280;11544;42.020;23.094;2023-12-07T03:59:09;96828.31;;;8.07;100.00
22755;BME280;11544;42.020;23.094;2023-12-07T04:01:37;96826.66;;;8.05;100.00
22755;BME280;11544;42.020;23.094;2023-12-07T04:04:04;96825.75;;;8.34;100.00
22755;BME280;11544;42.020;23.094;2023-12-07T04:06:32;96817.88;;;8.09;100.00
22755;BME280;11544;42.020;23.094;2023-12-07T04:08:59;96822.53;;;7.70;100.00
22755;BME280;11544;42.020;23.094;2023-12-07T04:11:26;96827.78;;;8.24;100.00
22755;BME280;11544;42.020;23.094;2023-12-07T04:13:53;96823.94;;;8.63;100.00
22755;BME280;11544;42.020;23.094;2023-12-07T04:16:20;96824.63;;;8.68;100.00
22755;BME280;11544;42.020;23.094;2023-12-07T04:18:48;96828.22;;;8.11;100.00
22755;BME280;11544;42.020;23.094;2023-12-07T04:21:15;96833.03;;;8.23;100.00
22755;BME280;11544;42.020;23.094;2023-12-07T04:23:42;96834.22;;;8.13;100.00
22755;BME280;11544;42.020;23.094;2023-12-07T04:26:09;96838.72;;;8.34;100.00
22755;BME280;11544;42.020;23.094;2023-12-07T04:28:36;96841.72;;;7.94;100.00
22755;BME280;11544;42.020;23.094;2023-12-07T04:31:03;96847.75;;;8.22;100.00
22755;BME280;11544;42.020;23.094;2023-12-07T04:33:30;96845.84;;;8.27;100.00
22755;BME280;11544;42.020;23.094;2023-12-07T04:35:58;96844.91;;;7.74;100.00
22755;BME280;11544;42.020;23.094;2023-12-07T04:38:25;96853.09;;;7.90;100.00
22755;BME280;11544;42.020;23.094;2023-12-07T04:40:52;96850.63;;;7.85;100.00
22755;BME280;11544;42.020;23.094;2023-12-07T04:43:19;96852.31;;;7.86;100.00
22755;BME280;11544;42.020;23.094;2023-12-07T04:45:46;96850.59;;;7.87;100.00
22755;BME280;11544;42.020;23.094;2023-12-07T04:48:13;96853.75;;;7.96;100.00
22755;BME280;11544;42.020;23.094;2023-12-07T04:50:40;96861.28;;;8.05;100.00
22755;BME280;11544;42.020;23.094;2023-12-07T04:53:08;96868.28;;;8.02;100.00
22755;BME280;11544;42.020;23.094;2023-12-07T04:55:34;96867.50;;;9.06;100.00
22755;BME280;11544;42.020;23.094;2023-12-07T04:58:02;96861.25;;;10.50;100.00
22755;BME280;11544;42.020;23.094;2023-12-07T05:00:29;96864.41;;;9.69;100.00
22755;BME280;11544;42.020;23.094;2023-12-07T05:02:56;96873.09;;;8.69;100.00
22755;BME280;11544;42.020;23.094;2023-12-07T05:05:23;96869.63;;;8.43;100.00
22755;BME280;11544;42.020;23.094;2023-12-07T05:07:51;96870.78;;;8.33;100.00
22755;BME280;11544;42.020;23.094;2023-12-07T05:10:18;96873.50;;;8.57;100.00
22755;BME280;11544;42.020;23.094;2023-12-07T05:12:45;96870.06;;;8.56;100.00
22755;BME280;11544;42.020;23.094;2023-12-07T05:15:12;96881.00;;;8.38;100.00
22755;BME280;11544;42.020;23.094;2023-12-07T05:17:39;96879.50;;;8.31;100.00
22755;BME280;11544;42.020;23.094;2023-12-07T05:20:06;96879.34;;;8.37;100.00
22755;BME280;11544;42.020;23.094;2023-12-07T05:22:34;96880.34;;;8.31;100.00
22755;BME280;11544;42.020;23.094;2023-12-07T05:25:01;96888.06;;;8.06;100.00
22755;BME280;11544;42.020;23.094;2023-12-07T05:27:27;96887.88;;;8.12;100.00
22755;BME280;11544;42.020;23.094;2023-12-07T05:29:54;96890.66;;;8.34;100.00
22755;BME280;11544;42.020;23.094;2023-12-07T05:32:21;96889.38;;;8.19;100.00
22755;BME280;11544;42.020;23.094;2023-12-07T05:34:49;96892.31;;;8.09;100.00
22755;BME280;11544;42.020;23.094;2023-12-07T05:37:17;96888.78;;;8.39;100.00
22755;BME280;11544;42.020;23.094;2023-12-07T05:39:44;96889.06;;;8.30;100.00
22755;BME280;11544;42.020;23.094;2023-12-07T05:42:11;96889.88;;;8.04;100.00
22755;BME280;11544;42.020;23.094;2023-12-07T05:44:38;96894.84;;;8.38;100.00
22755;BME280;11544;42.020;23.094;2023-12-07T05:47:05;96893.41;;;8.01;100.00
22755;BME280;11544;42.020;23.094;2023-12-07T05:49:32;96895.31;;;8.24;100.00
22755;BME280;11544;42.020;23.094;2023-12-07T05:51:59;96890.56;;;7.79;100.00
22755;BME280;11544;42.020;23.094;2023-12-07T05:54:26;96899.72;;;7.93;100.00
22755;BME280;11544;42.020;23.094;2023-12-07T05:56:53;96896.44;;;8.16;100.00
22755;BME280;11544;42.020;23.094;2023-12-07T05:59:20;96893.47;;;7.98;100.00
22755;BME280;11544;42.020;23.094;2023-12-07T06:01:47;96900.56;;;8.21;100.00
22755;BME280;11544;42.020;23.094;2023-12-07T06:04:17;96899.91;;;7.87;100.00
22755;BME280;11544;42.020;23.094;2023-12-07T06:06:44;96896.31;;;7.91;100.00
22755;BME280;11544;42.020;23.094;2023-12-07T06:09:11;96894.41;;;7.96;100.00
22755;BME280;11544;42.020;23.094;2023-12-07T06:11:38;96896.66;;;8.08;100.00
22755;BME280;11544;42.020;23.094;2023-12-07T06:14:05;96898.53;;;8.03;100.00
22755;BME280;11544;42.020;23.094;2023-12-07T06:16:34;96896.19;;;7.95;100.00
22755;BME280;11544;42.020;23.094;2023-12-07T06:19:02;96896.13;;;7.97;100.00
22755;BME280;11544;42.020;23.094;2023-12-07T06:21:30;96902.63;;;8.40;100.00
22755;BME280;11544;42.020;23.094;2023-12-07T06:23:58;96907.25;;;8.00;100.00
22755;BME280;11544;42.020;23.094;2023-12-07T06:26:25;96906.56;;;8.23;100.00
22755;BME280;11544;42.020;23.094;2023-12-07T06:28:53;96904.63;;;8.30;100.00
22755;BME280;11544;42.020;23.094;2023-12-07T06:31:19;96911.63;;;8.28;100.00
22755;BME280;11544;42.020;23.094;2023-12-07T06:33:48;96907.50;;;8.21;100.00
22755;BME280;11544;42.020;23.094;2023-12-07T06:36:23;96904.88;;;8.22;100.00
22755;BME280;11544;42.020;23.094;2023-12-07T06:38:50;96904.22;;;8.16;100.00
22755;BME280;11544;42.020;23.094;2023-12-07T06:41:17;96909.31;;;8.19;100.00
22755;BME280;11544;42.020;23.094;2023-12-07T06:43:44;96911.09;;;8.46;100.00
22755;BME280;11544;42.020;23.094;2023-12-07T06:46:14;96909.38;;;8.17;100.00
22755;BME280;11544;42.020;23.094;2023-12-07T06:48:43;96912.88;;;8.15;100.00
22755;BME280;11544;42.020;23.094;2023-12-07T06:51:11;96913.03;;;8.10;100.00
22755;BME280;11544;42.020;23.094;2023-12-07T06:53:39;96903.28;;;8.46;100.00
22755;BME280;11544;42.020;23.094;2023-12-07T06:56:07;96904.31;;;8.13;100.00
22755;BME280;11544;42.020;23.094;2023-12-07T06:58:35;96908.78;;;8.36;100.00
22755;BME280;11544;42.020;23.094;2023-12-07T07:01:02;96899.41;;;8.32;100.00
22755;BME280;11544;42.020;23.094;2023-12-07T07:03:30;96910.16;;;8.19;100.00
22755;BME280;11544;42.020;23.094;2023-12-07T07:05:56;96904.22;;;8.16;100.00
22755;BME280;11544;42.020;23.094;2023-12-07T07:08:25;96907.94;;;8.35;100.00
22755;BME280;11544;42.020;23.094;2023-12-07T07:10:52;96913.63;;;8.20;100.00
22755;BME280;11544;42.020;23.094;2023-12-07T07:13:19;96919.75;;;8.45;100.00
22755;BME280;11544;42.020;23.094;2023-12-07T07:15:47;96922.94;;;8.55;100.00
22755;BME280;11544;42.020;23.094;2023-12-07T07:18:16;96925.25;;;8.36;100.00
22755;BME280;11544;42.020;23.094;2023-12-07T07:20:44;96929.53;;;8.37;100.00
22755;BME280;11544;42.020;23.094;2023-12-07T07:23:11;96932.28;;;8.61;100.00
22755;BME280;11544;42.020;23.094;2023-12-07T07:25:38;96926.63;;;8.75;100.00
22755;BME280;11544;42.020;23.094;2023-12-07T07:28:05;96928.59;;;8.40;100.00
22755;BME280;11544;42.020;23.094;2023-12-07T07:30:32;96926.09;;;8.65;100.00
22755;BME280;11544;42.020;23.094;2023-12-07T07:32:59;96927.91;;;8.88;100.00
22755;BME280;11544;42.020;23.094;2023-12-07T07:35:28;96932.53;;;8.53;100.00
22755;BME280;11544;42.020;23.094;2023-12-07T07:37:55;96928.47;;;8.44;100.00
22755;BME280;11544;42.020;23.094;2023-12-07T07:40:22;96927.81;;;8.64;100.00
22755;BME280;11544;42.020;23.094;2023-12-07T07:42:51;96921.63;;;8.42;100.00
22755;BME280;11544;42.020;23.094;2023-12-07T07:45:18;96932.75;;;8.45;100.00
22755;BME280;11544;42.020;23.094;2023-12-07T07:47:45;96932.72;;;8.47;100.00
22755;BME280;11544;42.020;23.094;2023-12-07T07:50:12;96934.84;;;8.62;100.00
22755;BME280;11544;42.020;23.094;2023-12-07T07:52:39;96944.38;;;8.88;100.00
22755;BME280;11544;42.020;23.094;2023-12-07T07:55:09;96943.88;;;8.77;100.00
22755;BME280;11544;42.020;23.094;2023-12-07T07:57:36;96947.81;;;8.89;100.00
22755;BME280;11544;42.020;23.094;2023-12-07T08:00:04;96953.22;;;8.83;100.00
22755;BME280;11544;42.020;23.094;2023-12-07T08:02:35;96949.31;;;8.96;100.00
22755;BME280;11544;42.020;23.094;2023-12-07T08:05:03;96953.97;;;8.60;100.00
22755;BME280;11544;42.020;23.094;2023-12-07T08:07:30;96959.44;;;8.79;100.00
22755;BME280;11544;42.020;23.094;2023-12-07T08:09:57;96958.63;;;8.77;100.00
22755;BME280;11544;42.020;23.094;2023-12-07T08:12:24;96955.88;;;8.81;100.00
22755;BME280;11544;42.020;23.094;2023-12-07T08:14:51;96966.88;;;8.89;100.00
22755;BME280;11544;42.020;23.094;2023-12-07T08:17:18;96962.72;;;8.27;100.00
22755;BME280;11544;42.020;23.094;2023-12-07T08:19:46;96962.69;;;8.57;100.00
22755;BME280;11544;42.020;23.094;2023-12-07T08:22:14;96963.03;;;8.75;100.00
22755;BME280;11544;42.020;23.094;2023-12-07T08:24:41;96968.22;;;8.46;100.00
22755;BME280;11544;42.020;23.094;2023-12-07T08:27:10;96972.03;;;8.91;100.00
22755;BME280;11544;42.020;23.094;2023-12-07T08:29:37;96970.13;;;8.96;100.00
22755;BME280;11544;42.020;23.094;2023-12-07T08:32:04;96973.00;;;8.60;100.00
22755;BME280;11544;42.020;23.094;2023-12-07T08:34:31;96967.47;;;8.98;100.00
22755;BME280;11544;42.020;23.094;2023-12-07T08:36:58;96971.56;;;9.05;100.00
22755;BME280;11544;42.020;23.094;2023-12-07T08:39:25;96973.50;;;9.25;100.00
22755;BME280;11544;42.020;23.094;2023-12-07T08:41:52;96966.81;;;9.43;100.00
22755;BME280;11544;42.020;23.094;2023-12-07T08:44:19;96970.84;;;9.00;100.00
22755;BME280;11544;42.020;23.094;2023-12-07T08:46:47;96962.78;;;9.34;100.00
22755;BME280;11544;42.020;23.094;2023-12-07T08:49:14;96971.19;;;9.16;100.00
22755;BME280;11544;42.020;23.094;2023-12-07T08:51:41;96958.94;;;9.44;100.00
22755;BME280;11544;42.020;23.094;2023-12-07T08:54:28;96967.06;;;9.35;100.00
22755;BME280;11544;42.020;23.094;2023-12-07T08:56:55;96973.59;;;9.22;100.00
22755;BME280;11544;42.020;23.094;2023-12-07T08:59:22;96965.03;;;9.18;100.00
22755;BME280;11544;42.020;23.094;2023-12-07T09:01:50;96968.03;;;9.32;100.00
22755;BME280;11544;42.020;23.094;2023-12-07T09:04:17;96966.81;;;9.43;100.00
22755;BME280;11544;42.020;23.094;2023-12-07T09:06:44;96962.78;;;9.34;100.00
22755;BME280;11544;42.020;23.094;2023-12-07T09:09:11;96972.91;;;9.17;100.00
22755;BME280;11544;42.020;23.094;2023-12-07T09:11:38;96963.63;;;9.09;100.00
22755;BME280;11544;42.020;23.094;2023-12-07T09:14:05;96959.06;;;9.66;100.00
22755;BME280;11544;42.020;23.094;2023-12-07T09:16:32;96952.22;;;9.64;100.00
22755;BME280;11544;42.020;23.094;2023-12-07T09:18:59;96950.00;;;10.00;100.00
22755;BME280;11544;42.020;23.094;2023-12-07T09:21:26;96950.69;;;9.82;100.00
22755;BME280;11544;42.020;23.094;2023-12-07T09:23:53;96949.94;;;9.29;100.00
22755;BME280;11544;42.020;23.094;2023-12-07T09:26:20;96949.31;;;9.71;100.00
22755;BME280;11544;42.020;23.094;2023-12-07T09:28:47;96954.91;;;9.61;100.00
22755;BME280;11544;42.020;23.094;2023-12-07T09:31:14;96955.38;;;9.47;100.00
22755;BME280;11544;42.020;23.094;2023-12-07T09:33:43;96946.97;;;9.40;100.00
22755;BME280;11544;42.020;23.094;2023-12-07T09:36:16;96945.91;;;9.46;100.00
22755;BME280;11544;42.020;23.094;2023-12-07T09:38:45;96935.66;;;9.41;100.00
22755;BME280;11544;42.020;23.094;2023-12-07T09:41:12;96942.34;;;9.72;100.00
22755;BME280;11544;42.020;23.094;2023-12-07T09:43:39;96930.50;;;10.10;100.00
22755;BME280;11544;42.020;23.094;2023-12-07T09:46:06;96922.53;;;9.68;100.00
22755;BME280;11544;42.020;23.094;2023-12-07T09:48:35;96928.59;;;9.68;100.00
22755;BME280;11544;42.020;23.094;2023-12-07T09:51:05;96923.97;;;9.53;100.00
22755;BME280;11544;42.020;23.094;2023-12-07T09:53:33;96919.06;;;9.92;100.00
22755;BME280;11544;42.020;23.094;2023-12-07T09:56:01;96918.44;;;9.86;100.00
22755;BME280;11544;42.020;23.094;2023-12-07T09:58:28;96912.34;;;9.38;100.00
22755;BME280;11544;42.020;23.094;2023-12-07T10:01:06;96913.38;;;9.58;100.00
22755;BME280;11544;42.020;23.094;2023-12-07T10:03:33;96915.03;;;9.84;100.00
22755;BME280;11544;42.020;23.094;2023-12-07T10:06:00;96911.81;;;9.77;100.00
22755;BME280;11544;42.020;23.094;2023-12-07T10:08:29;96914.28;;;9.57;100.00
22755;BME280;11544;42.020;23.094;2023-12-07T10:11:10;96917.00;;;9.53;100.00
22755;BME280;11544;42.020;23.094;2023-12-07T10:13:38;96913.59;;;9.99;100.00
22755;BME280;11544;42.020;23.094;2023-12-07T10:16:13;96908.38;;;9.51;100.00
22755;BME280;11544;42.020;23.094;2023-12-07T10:18:42;96908.66;;;9.69;100.00
22755;BME280;11544;42.020;23.094;2023-12-07T10:21:11;96905.25;;;9.67;100.00
22755;BME280;11544;42.020;23.094;2023-12-07T10:23:40;96892.59;;;10.03;100.00
22755;BME280;11544;42.020;23.094;2023-12-07T10:26:10;96893.34;;;10.07;100.00
22755;BME280;11544;42.020;23.094;2023-12-07T10:28:39;96892.84;;;10.19;100.00
22755;BME280;11544;42.020;23.094;2023-12-07T10:31:09;96895.66;;;10.36;100.00
22755;BME280;11544;42.020;23.094;2023-12-07T10:33:37;96884.63;;;10.30;100.00
22755;BME280;11544;42.020;23.094;2023-12-07T10:36:04;96883.03;;;10.49;100.00
22755;BME280;11544;42.020;23.094;2023-12-07T10:38:33;96881.47;;;10.00;100.00
22755;BME280;11544;42.020;23.094;2023-12-07T10:41:12;96879.41;;;10.08;100.00
22755;BME280;11544;42.020;23.094;2023-12-07T10:43:42;96884.34;;;9.92;100.00
22755;BME280;11544;42.020;23.094;2023-12-07T10:46:15;96880.44;;;10.26;100.00
22755;BME280;11544;42.020;23.094;2023-12-07T10:48:45;96886.00;;;10.16;100.00
22755;BME280;11544;42.020;23.094;2023-12-07T10:51:41;96882.31;;;10.22;100.00
22755;BME280;11544;42.020;23.094;2023-12-07T10:54:11;96877.94;;;10.23;100.00
22755;BME280;11544;42.020;23.094;2023-12-07T10:56:45;96872.31;;;10.35;100.00
22755;BME280;11544;42.020;23.094;2023-12-07T10:59:13;96865.75;;;10.47;100.00
22755;BME280;11544;42.020;23.094;2023-12-07T11:01:57;96876.63;;;10.34;100.00
22755;BME280;11544;42.020;23.094;2023-12-07T11:04:25;96876.72;;;10.33;100.00
22755;BME280;11544;42.020;23.094;2023-12-07T11:06:54;96868.41;;;10.88;100.00
22755;BME280;11544;42.020;23.094;2023-12-07T11:09:28;96873.78;;;10.18;100.00
22755;BME280;11544;42.020;23.094;2023-12-07T11:12:02;96857.47;;;10.37;100.00
22755;BME280;11544;42.020;23.094;2023-12-07T11:14:33;96856.66;;;10.35;100.00
22755;BME280;11544;42.020;23.094;2023-12-07T11:17:03;96865.22;;;10.15;100.00
22755;BME280;11544;42.020;23.094;2023-12-07T11:22:06;96863.78;;;10.08;100.00
22755;BME280;11544;42.020;23.094;2023-12-07T11:24:33;96863.13;;;9.79;100.00
22755;BME280;11544;42.020;23.094;2023-12-07T11:27:03;96865.06;;;9.74;100.00
22755;BME280;11544;42.020;23.094;2023-12-07T11:29:31;96867.22;;;9.63;100.00
22755;BME280;11544;42.020;23.094;2023-12-07T11:32:02;96861.03;;;9.42;100.00
22755;BME280;11544;42.020;23.094;2023-12-07T11:34:45;96851.56;;;9.16;100.00
22755;BME280;11544;42.020;23.094;2023-12-07T11:37:15;96855.47;;;9.04;100.00
22755;BME280;11544;42.020;23.094;2023-12-07T11:39:48;96845.69;;;9.10;100.00
22755;BME280;11544;42.020;23.094;2023-12-07T11:42:17;96844.69;;;9.15;100.00
22755;BME280;11544;42.020;23.094;2023-12-07T11:44:48;96851.13;;;9.28;100.00
22755;BME280;11544;42.020;23.094;2023-12-07T11:47:20;96851.56;;;9.41;100.00
22755;BME280;11544;42.020;23.094;2023-12-07T11:49:47;96849.03;;;9.14;100.00
22755;BME280;11544;42.020;23.094;2023-12-07T11:52:19;96836.53;;;9.00;100.00
22755;BME280;11544;42.020;23.094;2023-12-07T11:54:48;96840.34;;;9.39;100.00
22755;BME280;11544;42.020;23.094;2023-12-07T11:57:16;96847.38;;;9.11;100.00
22755;BME280;11544;42.020;23.094;2023-12-07T11:59:46;96846.16;;;9.22;100.00
22755;BME280;11544;42.020;23.094;2023-12-07T12:02:16;96845.66;;;8.87;100.00
22755;BME280;11544;42.020;23.094;2023-12-07T12:04:43;96843.81;;;8.90;100.00
22755;BME280;11544;42.020;23.094;2023-12-07T12:07:11;96845.69;;;8.60;100.00
22755;BME280;11544;42.020;23.094;2023-12-07T12:09:38;96845.53;;;8.65;100.00
22755;BME280;11544;42.020;23.094;2023-12-07T12:12:06;96849.72;;;8.42;100.00
22755;BME280;11544;42.020;23.094;2023-12-07T12:14:33;96847.44;;;8.60;100.00
22755;BME280;11544;42.020;23.094;2023-12-07T12:17:00;96847.75;;;8.51;100.00
22755;BME280;11544;42.020;23.094;2023-12-07T12:19:27;96849.47;;;8.50;100.00
22755;BME280;11544;42.020;23.094;2023-12-07T12:22:02;96842.03;;;8.39;100.00
22755;BME280;11544;42.020;23.094;2023-12-07T12:24:34;96841.47;;;8.30;100.00
22755;BME280;11544;42.020;23.094;2023-12-07T12:27:02;96840.97;;;8.18;100.00
22755;BME280;11544;42.020;23.094;2023-12-07T12:29:30;96839.59;;;8.33;100.00
22755;BME280;11544;42.020;23.094;2023-12-07T12:32:03;96835.22;;;8.35;100.00
22755;BME280;11544;42.020;23.094;2023-12-07T12:34:33;96843.41;;;8.23;100.00
22755;BME280;11544;42.020;23.094;2023-12-07T12:37:01;96830.97;;;8.33;100.00
22755;BME280;11544;42.020;23.094;2023-12-07T12:39:32;96836.50;;;8.22;100.00
22755;BME280;11544;42.020;23.094;2023-12-07T12:42:01;96846.59;;;8.31;100.00
22755;BME280;11544;42.020;23.094;2023-12-07T12:44:33;96839.19;;;8.19;100.00
22755;BME280;11544;42.020;23.094;2023-12-07T12:47:07;96836.91;;;8.10;100.00
22755;BME280;11544;42.020;23.094;2023-12-07T12:49:41;96848.03;;;7.85;100.00
22755;BME280;11544;42.020;23.094;2023-12-07T12:52:15;96848.09;;;8.12;100.00
22755;BME280;11544;42.020;23.094;2023-12-07T12:54:43;96849.25;;;7.73;100.00
22755;BME280;11544;42.020;23.094;2023-12-07T12:57:11;96849.16;;;8.33;100.00
22755;BME280;11544;42.020;23.094;2023-12-07T12:59:38;96856.78;;;8.11;100.00